Decoded Metar for K0CO (BERTHOUD PASS in CO, USA) (IATA:0CO) | Meteo·Mobile Aviation Weather
aviador You're here:

K0CO Decoded Metar

BERTHOUD PASS in CO, USA
Report Time2018-11-20 17:42:00
UTC Time2018-11-20 17:43:27
Flight Rules vfr VFR
Wind320° at 08 kt
W.Rank320° ranks 3
Current wind is below 320° avg. (17.9)
Visibility9999 m
Phenomena:N/A
Clouds:N/A
Expected CloudBase > 2,800 ft AGL from Temp-Dew spread
CeilingNone
Temp-7°C (ISA +5)
Dew Point-14°C (58% RH)
AAT-13.2°C
QNH1028 hPa
Density Alt13,596 ft
Elevation13,494 ft
Report Wrong Elevation
Raw Report
K0CO 201742Z AUTO 32008KT 291V031 10SM CLR M07/M14 A3036 RMK
AO2=

Extra information for K0CO:More info

Metar Taf Metar & Taf Last 4 Metars F.Rules Stats Wind Profile Meteogram Temp Stats Airport Information Weather charts Add Link Nearby VenuesMetar ALERT Operation Metar Decoded Social comments

AIRNAV info for K0CO